Time;durP1;ratioP1;P1;durP2;ratioP2;P2;SDS_P1;SDS_P2;PMS_P1;PMS_P2;Temp;Humidity;BMP_temperature;BMP_pressure;BME280_temperature;BME280_humidity;BME280_pressure;Samples;Min_cycle;Max_cycle;Signal;HPM_P1;HPM_P2
2022/08/23 00:02:01;;;;;;;6.97;4.82;;;17.00;99.90;;;;;;5123175;27;20038;-68
2022/08/23 00:04:30;;;;;;;8.27;4.68;;;17.00;99.90;;;;;;5143634;27;20122;-68
2022/08/23 00:06:58;;;;;;;8.52;4.88;;;17.00;99.90;;;;;;5147209;27;20035;-68
2022/08/23 00:09:27;;;;;;;7.05;4.72;;;16.90;99.90;;;;;;5145298;27;20064;-68
2022/08/23 00:12:14;;;;;;;9.55;5.60;;;16.90;99.90;;;;;;5146890;27;20387;-68
2022/08/23 00:14:47;;;;;;;;;;;16.90;99.90;;;;;;5143112;27;20031;-68
2022/08/23 00:17:13;;;;;;;7.93;4.88;;;16.90;99.90;;;;;;5124581;27;19926;-68
2022/08/23 00:19:39;;;;;;;8.65;4.72;;;16.90;99.90;;;;;;5145473;27;20045;-68
2022/08/23 00:22:05;;;;;;;7.55;4.78;;;16.90;99.90;;;;;;5129291;27;20051;-68
2022/08/23 00:24:32;;;;;;;8.95;5.30;;;16.90;99.90;;;;;;5139958;27;20050;-68
2022/08/23 00:27:06;;;;;;;8.18;5.63;;;16.90;99.90;;;;;;5147440;27;20043;-68
2022/08/23 00:29:46;;;;;;;9.02;4.80;;;16.90;99.90;;;;;;5121359;27;20142;-68
2022/08/23 00:32:15;;;;;;;8.90;5.88;;;16.80;99.90;;;;;;5141240;27;20043;-68
2022/08/23 00:34:41;;;;;;;9.95;5.60;;;16.80;99.90;;;;;;5124431;27;20099;-68
2022/08/23 00:37:08;;;;;;;10.90;5.63;;;16.80;99.90;;;;;;5127086;27;20038;-68
2022/08/23 00:39:34;;;;;;;9.90;5.75;;;16.80;99.90;;;;;;5125717;27;20043;-67
2022/08/23 00:47:38;;;;;;;8.10;6.00;;;16.80;99.90;;;;;;5147297;27;20034;-68
2022/08/23 00:47:40;;;;;;;7.57;5.53;;;16.80;99.90;;;;;;5124174;27;20047;-68
2022/08/23 00:50:21;;;;;;;9.30;5.68;;;16.70;99.90;;;;;;5129412;27;20183;-68
2022/08/23 00:52:54;;;;;;;9.10;6.10;;;16.70;99.90;;;;;;5145920;27;20045;-68
2022/08/23 00:55:20;;;;;;;9.30;6.40;;;16.70;99.90;;;;;;5144743;27;20039;-68
2022/08/23 00:57:46;;;;;;;9.55;6.10;;;16.70;99.90;;;;;;5126693;27;20028;-68
2022/08/23 01:00:13;;;;;;;10.38;6.38;;;16.60;99.90;;;;;;5126282;27;20141;-67
2022/08/23 01:02:40;;;;;;;8.43;6.28;;;16.60;99.90;;;;;;5125462;27;20084;-68
2022/08/23 01:05:06;;;;;;;10.82;7.07;;;16.60;99.90;;;;;;5124695;27;20087;-68
2022/08/23 01:07:51;;;;;;;12.40;7.25;;;16.60;99.90;;;;;;5146511;27;20046;-68
2022/08/23 01:10:24;;;;;;;10.07;6.40;;;16.60;99.90;;;;;;5146496;27;20049;-68
2022/08/23 01:12:59;;;;;;;10.05;6.40;;;16.60;99.90;;;;;;5142934;27;20046;-68
2022/08/23 01:15:31;;;;;;;9.63;6.70;;;16.60;99.90;;;;;;5117917;27;20050;-69
2022/08/23 01:18:03;;;;;;;11.55;6.57;;;16.60;99.90;;;;;;5115251;27;20172;-67
2022/08/23 01:20:37;;;;;;;9.68;6.25;;;16.60;99.90;;;;;;5127144;27;20041;-68
2022/08/23 01:23:27;;;;;;;11.63;6.63;;;16.60;99.90;;;;;;5143621;27;20202;-67
2022/08/23 01:25:54;;;;;;;9.85;6.70;;;16.60;99.90;;;;;;5119582;27;20451;-67
2022/08/23 01:28:19;;;;;;;10.57;6.43;;;16.60;99.90;;;;;;5127993;27;20440;-67
2022/08/23 01:30:47;;;;;;;10.50;7.18;;;16.60;99.90;;;;;;5122058;27;20057;-67
2022/08/23 01:33:12;;;;;;;9.75;6.43;;;16.60;99.90;;;;;;5126559;27;20043;-67
2022/08/23 01:35:43;;;;;;;13.55;7.68;;;16.60;99.90;;;;;;5144373;27;20034;-66
2022/08/23 01:38:10;;;;;;;11.30;7.15;;;16.60;99.90;;;;;;5125994;27;20402;-67
2022/08/23 01:40:38;;;;;;;10.27;6.60;;;16.60;99.90;;;;;;5125619;27;20452;-67
2022/08/23 01:43:04;;;;;;;11.60;6.90;;;16.50;99.90;;;;;;5125321;27;20126;-67
2022/08/23 01:45:31;;;;;;;10.30;7.55;;;16.60;99.90;;;;;;5128887;27;20070;-67
2022/08/23 01:47:59;;;;;;;9.80;7.13;;;16.50;99.90;;;;;;5141977;27;20035;-67
2022/08/23 01:50:28;;;;;;;8.80;6.82;;;16.50;99.90;;;;;;5126800;27;20043;-67
2022/08/23 01:52:54;;;;;;;10.90;7.03;;;16.50;99.90;;;;;;5142713;27;20136;-67
2022/08/23 01:55:20;;;;;;;8.13;6.68;;;16.50;99.90;;;;;;5127281;27;20490;-67
2022/08/23 01:57:50;;;;;;;10.40;6.95;;;16.50;99.90;;;;;;5138180;27;20082;-67
2022/08/23 02:00:17;;;;;;;11.40;7.15;;;16.50;99.90;;;;;;5119980;27;20072;-67
2022/08/23 02:02:44;;;;;;;10.70;6.90;;;16.50;99.90;;;;;;5126447;27;20640;-66
2022/08/23 02:05:09;;;;;;;11.75;7.53;;;16.70;99.90;;;;;;5141371;27;20042;-67
2022/08/23 02:07:35;;;;;;;12.68;7.10;;;16.50;99.90;;;;;;5125413;27;20387;-66
2022/08/23 02:10:01;;;;;;;10.00;6.78;;;16.50;99.90;;;;;;5142817;27;20031;-67
2022/08/23 02:12:27;;;;;;;10.30;6.70;;;16.50;99.90;;;;;;5144605;27;20039;-67
2022/08/23 02:14:53;;;;;;;8.40;6.05;;;16.50;99.90;;;;;;5141724;27;20091;-67
2022/08/23 02:17:19;;;;;;;8.82;6.35;;;16.50;99.90;;;;;;5145670;27;20038;-66
2022/08/23 02:19:45;;;;;;;10.60;6.45;;;16.50;99.90;;;;;;5126566;27;20027;-67
2022/08/23 02:22:11;;;;;;;8.32;6.32;;;16.50;99.90;;;;;;5144155;27;20499;-66
2022/08/23 02:24:45;;;;;;;9.63;6.72;;;16.50;99.90;;;;;;5123981;27;20494;-67
2022/08/23 02:27:14;;;;;;;10.35;6.95;;;16.50;99.90;;;;;;5119083;27;20077;-67
2022/08/23 02:29:41;;;;;;;8.18;6.55;;;16.40;99.90;;;;;;5125610;27;20066;-66
2022/08/23 02:32:07;;;;;;;9.02;6.43;;;16.50;99.90;;;;;;5123636;27;20423;-67
2022/08/23 02:34:33;;;;;;;10.05;6.75;;;16.50;99.90;;;;;;5141993;27;20035;-67
2022/08/23 02:36:59;;;;;;;11.48;7.10;;;16.50;99.90;;;;;;5123520;27;20053;-67
2022/08/23 02:39:25;;;;;;;10.82;6.80;;;16.50;99.90;;;;;;5143526;27;20378;-67
2022/08/23 02:41:51;;;;;;;12.25;6.47;;;16.50;99.90;;;;;;5143735;27;20039;-67
2022/08/23 02:44:18;;;;;;;8.38;6.10;;;16.50;99.90;;;;;;5122881;27;20074;-67
2022/08/23 02:46:44;;;;;;;9.60;6.10;;;16.50;99.90;;;;;;5144822;27;20101;-67
2022/08/23 02:49:10;;;;;;;11.05;6.93;;;16.50;99.90;;;;;;5140877;27;20113;-67
2022/08/23 02:51:37;;;;;;;9.55;6.38;;;16.60;99.90;;;;;;5125864;27;20042;-67
2022/08/23 02:54:03;;;;;;;10.10;6.53;;;16.60;99.90;;;;;;5123271;27;20498;-67
2022/08/23 02:56:29;;;;;;;11.10;6.63;;;16.60;99.90;;;;;;5125742;27;20054;-67
2022/08/23 02:58:55;;;;;;;9.88;6.68;;;16.60;99.90;;;;;;5141494;27;20382;-67
2022/08/23 03:01:28;;;;;;;10.00;6.85;;;16.60;99.90;;;;;;5124497;27;20051;-67
2022/08/23 03:03:55;;;;;;;10.25;6.93;;;16.60;99.90;;;;;;5142550;27;20070;-67
2022/08/23 03:06:21;;;;;;;11.27;6.18;;;16.70;99.90;;;;;;5143596;27;20049;-67
2022/08/23 03:08:49;;;;;;;8.35;6.22;;;16.60;99.90;;;;;;5123717;27;20035;-67
2022/08/23 03:11:19;;;;;;;9.15;6.90;;;16.70;99.90;;;;;;5143213;27;20062;-67
2022/08/23 03:13:46;;;;;;;9.85;6.28;;;16.70;99.90;;;;;;5123633;27;20039;-67
2022/08/23 03:16:12;;;;;;;9.45;6.47;;;16.80;99.90;;;;;;5125590;27;20050;-67
2022/08/23 03:18:38;;;;;;;11.05;6.15;;;16.70;99.90;;;;;;5140237;27;20083;-68
2022/08/23 03:21:06;;;;;;;8.32;5.82;;;16.60;99.90;;;;;;5123429;27;20039;-67
2022/08/23 03:23:33;;;;;;;8.63;6.50;;;16.60;99.90;;;;;;5136718;27;20065;-67
2022/08/23 03:26:00;;;;;;;10.43;6.43;;;16.60;99.90;;;;;;5125171;27;20390;-67
2022/08/23 03:28:26;;;;;;;12.45;6.53;;;16.60;99.90;;;;;;5141949;27;20065;-67
2022/08/23 03:30:52;;;;;;;8.50;6.00;;;16.50;99.90;;;;;;5143402;27;20059;-67
2022/08/23 03:33:17;;;;;;;10.32;6.00;;;16.50;99.90;;;;;;5142479;27;20030;-67
2022/08/23 03:35:43;;;;;;;10.13;6.40;;;16.50;99.90;;;;;;5140642;27;20482;-67
2022/08/23 03:38:10;;;;;;;9.02;6.13;;;16.50;99.90;;;;;;5141818;27;20483;-67
2022/08/23 03:40:35;;;;;;;8.30;6.63;;;16.40;99.90;;;;;;5144956;27;20407;-67
2022/08/23 03:43:01;;;;;;;9.85;6.72;;;16.40;99.90;;;;;;5126316;27;20589;-67
2022/08/23 03:45:30;;;;;;;8.50;6.65;;;16.40;99.90;;;;;;5148223;27;20042;-67
2022/08/23 03:47:57;;;;;;;10.43;7.05;;;16.40;99.90;;;;;;5147579;27;20053;-67
2022/08/23 03:50:23;;;;;;;8.90;6.60;;;16.30;99.90;;;;;;5130350;27;20032;-67
2022/08/23 03:52:48;;;;;;;9.80;7.03;;;16.40;99.90;;;;;;5146625;27;20046;-67
2022/08/23 03:55:15;;;;;;;9.88;7.50;;;16.30;99.90;;;;;;5126844;27;20528;-67
2022/08/23 03:57:41;;;;;;;9.20;6.50;;;16.30;99.90;;;;;;5127769;27;20126;-67
2022/08/23 04:00:09;;;;;;;8.88;7.30;;;16.20;99.90;;;;;;5128561;27;20133;-67
2022/08/23 04:02:36;;;;;;;9.65;7.20;;;16.20;99.90;;;;;;5145653;27;20043;-66
2022/08/23 04:05:02;;;;;;;8.55;6.60;;;16.20;99.90;;;;;;5128247;27;20444;-67
2022/08/23 04:07:29;;;;;;;10.93;7.10;;;16.10;99.90;;;;;;5128977;27;20038;-67
2022/08/23 04:09:55;;;;;;;7.60;6.50;;;16.20;99.90;;;;;;5121737;27;20051;-67
2022/08/23 04:12:22;;;;;;;8.75;6.80;;;16.10;99.90;;;;;;5147765;27;20039;-67
2022/08/23 04:14:48;;;;;;;9.20;7.38;;;16.00;99.90;;;;;;5125678;27;20054;-66
2022/08/23 04:17:16;;;;;;;11.45;7.72;;;16.00;99.90;;;;;;5146627;27;20089;-67
2022/08/23 04:19:42;;;;;;;12.90;7.28;;;16.00;99.90;;;;;;5145236;27;20078;-67
2022/08/23 04:22:12;;;;;;;11.30;8.05;;;16.00;99.90;;;;;;5125950;27;20043;-67
2022/08/23 04:24:38;;;;;;;10.02;7.35;;;15.90;99.90;;;;;;5127315;27;20474;-67
2022/08/23 04:27:05;;;;;;;9.75;7.00;;;15.90;99.90;;;;;;5145098;27;20042;-67
2022/08/23 04:29:30;;;;;;;12.63;7.90;;;15.90;99.90;;;;;;5127512;27;20379;-68
2022/08/23 04:31:56;;;;;;;10.02;7.72;;;15.90;99.90;;;;;;5125386;27;20042;-67
2022/08/23 04:34:22;;;;;;;12.50;7.70;;;15.90;99.90;;;;;;5125450;27;20039;-68
2022/08/23 04:36:48;;;;;;;11.48;8.23;;;15.90;99.90;;;;;;5146802;27;20462;-67
2022/08/23 04:39:14;;;;;;;11.95;8.30;;;15.90;99.90;;;;;;5144243;27;20049;-67
2022/08/23 04:44:24;;;;;;;11.18;7.28;;;15.90;99.90;;;;;;5121301;27;20057;-67
2022/08/23 04:46:50;;;;;;;11.00;8.07;;;15.90;99.90;;;;;;5128798;27;20046;-67
2022/08/23 04:49:17;;;;;;;10.45;8.00;;;15.90;99.90;;;;;;5126367;27;20122;-67
2022/08/23 04:51:43;;;;;;;10.88;7.22;;;15.90;99.90;;;;;;5146123;27;20066;-67
2022/08/23 04:54:10;;;;;;;10.27;8.00;;;15.80;99.90;;;;;;5126149;27;20054;-67
2022/08/23 04:56:36;;;;;;;11.25;7.50;;;15.80;99.90;;;;;;5126692;27;20082;-66
2022/08/23 04:59:02;;;;;;;11.27;7.35;;;15.80;99.90;;;;;;5126511;27;20050;-67
2022/08/23 05:01:29;;;;;;;10.38;7.15;;;15.90;99.90;;;;;;5144888;27;20097;-67
2022/08/23 05:03:55;;;;;;;9.95;7.57;;;15.80;99.90;;;;;;5144413;27;20187;-67
2022/08/23 05:06:22;;;;;;;10.95;8.07;;;15.90;99.90;;;;;;5128391;27;20114;-67
2022/08/23 05:08:47;;;;;;;11.13;8.25;;;15.90;99.90;;;;;;5143588;27;20039;-67
2022/08/23 05:11:17;;;;;;;10.07;7.78;;;16.00;99.90;;;;;;5119532;27;20030;-67
2022/08/23 05:13:43;;;;;;;13.20;7.97;;;16.00;99.90;;;;;;5120469;27;20126;-67
2022/08/23 05:16:12;;;;;;;9.60;8.13;;;16.10;99.90;;;;;;5146052;27;20049;-67
2022/08/23 05:18:39;;;;;;;11.27;7.93;;;16.10;99.90;;;;;;5124621;27;20039;-67
2022/08/23 05:21:05;;;;;;;10.52;7.97;;;16.20;99.90;;;;;;5124180;27;20046;-67
2022/08/23 05:23:30;;;;;;;14.48;9.50;;;16.30;99.90;;;;;;5122526;27;20394;-67
2022/08/23 05:25:57;;;;;;;10.52;7.95;;;16.40;99.90;;;;;;5122796;27;20056;-67
2022/08/23 05:28:44;;;;;;;9.98;7.72;;;16.60;99.90;;;;;;5123401;27;20122;-67
2022/08/23 05:31:11;;;;;;;;;;;16.60;99.90;;;;;;5124888;27;20639;-67
2022/08/23 05:33:37;;;;;;;11.02;7.72;;;16.70;99.90;;;;;;5120793;27;20367;-68
2022/08/23 05:36:04;;;;;;;13.18;8.85;;;16.80;99.90;;;;;;5121596;27;20418;-68
2022/08/23 05:38:33;;;;;;;11.13;8.25;;;16.90;99.90;;;;;;5124030;27;20118;-68
2022/08/23 05:41:03;;;;;;;13.52;8.10;;;16.90;99.90;;;;;;5120901;27;20085;-67
2022/08/23 05:43:33;;;;;;;10.18;8.38;;;17.00;99.90;;;;;;5122934;27;20121;-67
2022/08/23 05:46:04;;;;;;;9.68;7.93;;;17.10;99.90;;;;;;5121217;27;20466;-68
2022/08/23 05:48:32;;;;;;;11.13;7.97;;;17.20;99.90;;;;;;5123518;27;20047;-68
2022/08/23 05:51:11;;;;;;;10.00;7.82;;;17.20;99.90;;;;;;5117197;27;20437;-68
2022/08/23 05:53:38;;;;;;;12.63;8.05;;;17.30;99.90;;;;;;5117614;27;20028;-67
2022/08/23 05:56:12;;;;;;;12.68;8.45;;;17.30;99.90;;;;;;5124646;27;20043;-68
2022/08/23 05:58:37;;;;;;;12.60;7.82;;;17.30;99.90;;;;;;5117915;27;20118;-68
2022/08/23 06:01:03;;;;;;;10.57;8.05;;;17.40;99.90;;;;;;5123841;27;20145;-67
2022/08/23 06:03:32;;;;;;;10.18;7.90;;;17.40;99.90;;;;;;5122045;27;20096;-68
2022/08/23 06:05:59;;;;;;;13.20;8.00;;;17.50;99.90;;;;;;5120234;27;20035;-68
2022/08/23 06:08:27;;;;;;;10.07;7.88;;;17.60;99.90;;;;;;5122208;27;20058;-68
2022/08/23 06:11:02;;;;;;;13.88;9.23;;;17.70;99.90;;;;;;5121208;27;20035;-68
2022/08/23 06:13:30;;;;;;;9.85;8.10;;;17.70;99.90;;;;;;5124612;27;20047;-67
2022/08/23 06:15:56;;;;;;;10.57;8.25;;;17.80;99.90;;;;;;5120535;27;20039;-68
2022/08/23 06:18:23;;;;;;;15.07;8.93;;;17.80;99.90;;;;;;5122406;27;20043;-68
2022/08/23 06:21:00;;;;;;;17.48;9.13;;;18.00;99.90;;;;;;5122886;27;20035;-68
2022/08/23 06:23:26;;;;;;;13.35;9.07;;;18.10;99.90;;;;;;5136203;27;20051;-68
2022/08/23 06:25:51;;;;;;;11.27;9.43;;;18.20;99.90;;;;;;5124353;27;20048;-68
2022/08/23 06:28:17;;;;;;;11.88;9.40;;;18.20;99.90;;;;;;5124395;27;20087;-68
2022/08/23 06:30:42;;;;;;;12.52;8.55;;;18.30;99.90;;;;;;5144332;27;20035;-68
2022/08/23 06:33:11;;;;;;;12.23;8.98;;;18.40;99.90;;;;;;5141953;27;20481;-68
2022/08/23 06:35:37;;;;;;;19.38;9.50;;;18.50;99.90;;;;;;5122020;27;20051;-67
2022/08/23 06:38:03;;;;;;;13.65;9.00;;;18.60;99.90;;;;;;5139215;27;20042;-68
2022/08/23 06:40:30;;;;;;;12.73;9.18;;;18.70;99.90;;;;;;5119049;27;20048;-68
2022/08/23 06:42:57;;;;;;;14.25;8.73;;;18.80;99.90;;;;;;5125503;27;20078;-68
2022/08/23 06:45:23;;;;;;;13.07;9.43;;;19.00;99.90;;;;;;5142130;27;20051;-68
2022/08/23 06:47:49;;;;;;;12.02;9.15;;;19.20;99.90;;;;;;5144198;27;20127;-68
2022/08/23 06:50:14;;;;;;;12.48;8.95;;;19.40;99.90;;;;;;5142152;27;20096;-68
2022/08/23 06:52:40;;;;;;;10.85;8.35;;;19.60;99.90;;;;;;5124510;27;20070;-68
2022/08/23 06:55:07;;;;;;;9.93;8.30;;;19.70;99.90;;;;;;5140287;27;20047;-68
2022/08/23 06:57:32;;;;;;;11.93;8.38;;;19.90;99.90;;;;;;5125576;27;20041;-68
2022/08/23 06:59:58;;;;;;;12.68;8.13;;;20.10;99.90;;;;;;5140816;27;20030;-68
2022/08/23 07:02:24;;;;;;;11.73;7.65;;;20.30;99.90;;;;;;5145119;27;20042;-69
2022/08/23 07:04:52;;;;;;;14.20;8.35;;;20.60;99.90;;;;;;5126412;27;20545;-68
2022/08/23 07:07:18;;;;;;;11.85;8.60;;;20.70;99.90;;;;;;5140370;27;20054;-68
2022/08/23 07:09:44;;;;;;;10.80;8.32;;;20.80;99.90;;;;;;5144962;27;20035;-68
2022/08/23 07:12:10;;;;;;;11.93;8.10;;;20.90;99.90;;;;;;5141781;27;20050;-68
2022/08/23 07:14:36;;;;;;;9.77;7.90;;;20.90;99.90;;;;;;5124137;27;20047;-69
2022/08/23 07:17:03;;;;;;;9.73;7.57;;;20.90;99.90;;;;;;5148132;27;20045;-68
2022/08/23 07:19:31;;;;;;;10.45;8.32;;;21.00;99.90;;;;;;5144691;27;20039;-69
2022/08/23 07:22:01;;;;;;;13.63;8.20;;;21.10;99.90;;;;;;5148378;27;20080;-69
2022/08/23 07:24:28;;;;;;;14.68;7.63;;;21.30;99.90;;;;;;5125847;27;20442;-69
2022/08/23 07:26:54;;;;;;;12.90;8.40;;;22.20;99.90;;;;;;5130016;27;20041;-69
2022/08/23 07:29:20;;;;;;;8.98;7.20;;;23.20;99.90;;;;;;5145260;27;20043;-69
2022/08/23 07:31:52;;;;;;;11.80;7.57;;;24.20;99.90;;;;;;5147656;27;20035;-69
2022/08/23 07:34:18;;;;;;;10.25;7.18;;;25.00;99.90;;;;;;5130054;27;20505;-69
2022/08/23 07:36:46;;;;;;;9.57;6.88;;;25.70;99.90;;;;;;5127878;27;20062;-68
2022/08/23 07:39:13;;;;;;;11.05;6.72;;;26.40;99.40;;;;;;5146856;27;20043;-69
2022/08/23 07:41:40;;;;;;;9.85;6.97;;;27.00;98.80;;;;;;5128327;27;20038;-69
2022/08/23 07:44:08;;;;;;;8.02;6.57;;;27.20;97.20;;;;;;5128207;27;20074;-69
2022/08/23 07:46:35;;;;;;;8.25;6.47;;;27.10;96.90;;;;;;5127942;27;20070;-69
2022/08/23 07:49:02;;;;;;;8.30;6.78;;;27.00;96.50;;;;;;5127754;27;20372;-69
2022/08/23 07:51:30;;;;;;;7.38;5.97;;;26.80;96.40;;;;;;5145664;27;20117;-69
2022/08/23 07:53:56;;;;;;;11.88;7.20;;;26.80;97.20;;;;;;5145837;27;20035;-70
2022/08/23 07:56:22;;;;;;;10.85;7.30;;;26.70;96.60;;;;;;5127257;27;20043;-69
2022/08/23 07:58:48;;;;;;;10.65;7.85;;;26.60;97.10;;;;;;5148835;27;20041;-69
2022/08/23 08:01:21;;;;;;;9.73;7.25;;;26.60;96.40;;;;;;5126073;27;20118;-69
2022/08/23 08:03:51;;;;;;;10.23;7.38;;;26.50;96.70;;;;;;5141409;27;20163;-69
2022/08/23 08:06:20;;;;;;;10.52;6.93;;;26.30;97.20;;;;;;5124572;27;20066;-69
2022/08/23 08:08:47;;;;;;;11.15;7.18;;;25.90;97.40;;;;;;5122204;27;20074;-68
2022/08/23 08:11:16;;;;;;;8.25;6.55;;;25.70;97.50;;;;;;5122504;27;20084;-69
2022/08/23 08:13:44;;;;;;;10.13;7.10;;;25.40;98.20;;;;;;5129403;27;20057;-69
2022/08/23 08:16:18;;;;;;;11.38;6.75;;;25.30;98.40;;;;;;5127004;27;20077;-69
2022/08/23 08:18:47;;;;;;;11.68;7.22;;;25.30;98.90;;;;;;5141021;27;20375;-69
2022/08/23 08:21:16;;;;;;;9.07;7.22;;;25.70;98.70;;;;;;5135475;27;20043;-69
2022/08/23 08:23:42;;;;;;;8.38;6.57;;;26.50;98.10;;;;;;5122550;27;20039;-69
2022/08/23 08:26:10;;;;;;;8.40;5.97;;;27.20;97.80;;;;;;5129190;27;20569;-69
2022/08/23 08:28:36;;;;;;;7.57;5.60;;;28.00;96.70;;;;;;5144961;27;20122;-69
2022/08/23 08:31:02;;;;;;;8.02;5.40;;;29.00;95.90;;;;;;5146692;27;20490;-69
2022/08/23 08:33:29;;;;;;;9.07;5.35;;;30.10;95.00;;;;;;5145813;27;20438;-69
2022/08/23 08:35:59;;;;;;;7.95;5.63;;;31.20;93.60;;;;;;5127623;27;20043;-69
2022/08/23 08:38:25;;;;;;;8.02;4.95;;;31.50;91.90;;;;;;5145689;27;20035;-69
2022/08/23 08:41:16;;;;;;;7.97;5.15;;;31.60;91.80;;;;;;5146210;27;20031;-69
2022/08/23 08:44:20;;;;;;;7.65;5.63;;;31.30;90.80;;;;;;5139512;27;20486;-70
2022/08/23 08:46:49;;;;;;;6.75;5.13;;;30.90;91.30;;;;;;5126016;27;20039;-69
2022/08/23 08:49:31;;;;;;;10.60;5.72;;;30.60;91.10;;;;;;5146321;27;20205;-71
2022/08/23 08:52:12;;;;;;;8.40;5.15;;;30.30;92.00;;;;;;5144258;27;20490;-69
2022/08/23 08:54:40;;;;;;;7.70;5.40;;;30.00;92.40;;;;;;5121527;27;20082;-69
2022/08/23 08:57:08;;;;;;;6.72;4.93;;;29.90;92.90;;;;;;5120318;27;20050;-69
2022/08/23 08:59:42;;;;;;;6.78;5.22;;;30.30;92.70;;;;;;5147228;27;20492;-71
2022/08/23 09:02:16;;;;;;;7.97;6.18;;;30.50;92.50;;;;;;5136012;27;20125;-69
2022/08/23 09:04:42;;;;;;;8.82;6.57;;;30.20;91.90;;;;;;5139793;27;20509;-69
2022/08/23 09:07:29;;;;;;;10.60;6.80;;;30.20;92.10;;;;;;5128628;27;20034;-69
2022/08/23 09:10:06;;;;;;;7.50;5.38;;;30.30;92.20;;;;;;5143841;27;20167;-68
2022/08/23 09:13:02;;;;;;;7.32;5.15;;;30.20;91.30;;;;;;5125017;27;20494;-69
2022/08/23 09:15:39;;;;;;;9.20;4.82;;;30.30;90.60;;;;;;5118044;27;20089;-69
2022/08/23 09:18:15;;;;;;;7.47;5.68;;;30.50;91.20;;;;;;5141440;27;20118;-69
2022/08/23 09:20:42;;;;;;;;;;;31.10;90.20;;;;;;5122749;27;20071;-69
2022/08/23 09:23:13;;;;;;;9.32;5.88;;;31.20;90.90;;;;;;5127804;27;19933;-69
2022/08/23 09:25:39;;;;;;;6.82;4.82;;;31.10;90.90;;;;;;5142820;27;20039;-69
2022/08/23 09:28:05;;;;;;;6.60;4.50;;;31.20;91.10;;;;;;5146598;27;20094;-69
2022/08/23 09:30:44;;;;;;;7.10;5.00;;;31.30;90.30;;;;;;5119910;27;20043;-69
2022/08/23 09:33:19;;;;;;;7.90;5.68;;;32.00;89.90;;;;;;5140986;27;20070;-69
2022/08/23 09:36:19;;;;;;;8.10;4.97;;;32.70;89.00;;;;;;5144620;27;20030;-69
2022/08/23 09:38:57;;;;;;;7.75;4.40;;;32.60;86.10;;;;;;5122240;27;20325;-69
2022/08/23 09:41:35;;;;;;;6.60;4.05;;;31.80;87.50;;;;;;5124802;27;20058;-69
2022/08/23 09:44:06;;;;;;;5.93;4.10;;;31.80;86.50;;;;;;5120715;27;20524;-69
2022/08/23 09:46:40;;;;;;;7.93;4.15;;;31.90;86.20;;;;;;5128993;27;20398;-69
2022/08/23 09:49:26;;;;;;;5.93;3.97;;;32.10;85.50;;;;;;5144424;27;20039;-69
2022/08/23 09:51:55;;;;;;;6.38;4.03;;;32.60;83.50;;;;;;5126515;27;20079;-70
2022/08/23 09:54:32;;;;;;;7.63;5.22;;;32.80;85.30;;;;;;5125132;27;20059;-70
2022/08/23 09:57:08;;;;;;;6.78;4.95;;;33.10;84.10;;;;;;5119929;27;20039;-69
2022/08/23 09:59:50;;;;;;;7.40;4.63;;;33.10;83.30;;;;;;5138894;27;20394;-70
2022/08/23 10:02:27;;;;;;;7.70;3.97;;;32.90;82.20;;;;;;5124585;27;20107;-70
2022/08/23 10:05:34;;;;;;;7.00;4.47;;;33.20;84.40;;;;;;5126890;27;20095;-70
2022/08/23 10:08:05;;;;;;;8.15;4.63;;;33.70;84.30;;;;;;5077716;27;20080;-70
2022/08/23 10:10:46;;;;;;;6.97;5.03;;;34.10;82.50;;;;;;5126802;27;20050;-70
2022/08/23 10:13:13;;;;;;;7.40;5.68;;;34.20;83.20;;;;;;5143212;27;20042;-69
2022/08/23 10:16:18;;;;;;;8.27;5.32;;;34.60;81.70;;;;;;5125338;27;20347;-70
2022/08/23 10:19:26;;;;;;;7.78;4.82;;;34.60;81.20;;;;;;5123582;27;20051;-70
2022/08/23 10:22:18;;;;;;;7.13;4.82;;;34.30;82.10;;;;;;5118652;27;20428;-70
2022/08/23 10:24:51;;;;;;;8.48;5.28;;;34.50;83.70;;;;;;5125044;27;20049;-69
2022/08/23 10:30:36;;;;;;;9.73;5.57;;;34.70;82.40;;;;;;5141154;27;20043;-69
2022/08/23 10:33:30;;;;;;;11.23;6.45;;;34.80;82.20;;;;;;5138567;27;20114;-69
2022/08/23 10:36:10;;;;;;;8.95;5.40;;;35.00;82.00;;;;;;5141728;27;20034;-69
2022/08/23 10:38:56;;;;;;;10.20;6.10;;;35.00;82.00;;;;;;5125137;27;20055;-69
2022/08/23 10:41:36;;;;;;;;;;;35.40;81.00;;;;;;5119552;27;20050;-69
2022/08/23 10:44:33;;;;;;;5.70;4.57;;;35.40;80.40;;;;;;5121957;27;20358;-69
2022/08/23 10:47:26;;;;;;;7.80;5.65;;;35.50;81.40;;;;;;5142427;27;20035;-70
2022/08/23 10:49:54;;;;;;;6.35;4.68;;;35.60;79.30;;;;;;5137131;27;20039;-70
2022/08/23 10:52:29;;;;;;;7.43;4.22;;;35.90;78.90;;;;;;5145130;27;20094;-70
2022/08/23 10:55:04;;;;;;;;;;;35.80;79.30;;;;;;5139590;27;20035;-70
2022/08/23 10:57:38;;;;;;;9.30;4.90;;;35.70;77.70;;;;;;5123812;27;19928;-70
2022/08/23 11:00:13;;;;;;;7.85;4.60;;;35.30;78.20;;;;;;5124457;27;20039;-70
2022/08/23 11:02:51;;;;;;;5.68;3.58;;;35.60;78.60;;;;;;5139832;27;20095;-69
2022/08/23 11:05:25;;;;;;;6.50;4.25;;;35.70;77.70;;;;;;5141637;27;20050;-69
2022/08/23 11:08:10;;;;;;;8.52;5.47;;;35.60;78.20;;;;;;5138492;27;20436;-70
2022/08/23 11:10:38;;;;;;;7.22;4.72;;;36.00;77.10;;;;;;5123435;27;20078;-70
2022/08/23 11:13:07;;;;;;;12.18;5.03;;;35.70;78.20;;;;;;5125074;27;20039;-70
2022/08/23 11:15:57;;;;;;;7.32;4.90;;;35.70;78.70;;;;;;5123869;27;20122;-71
2022/08/23 11:18:37;;;;;;;5.80;4.50;;;35.70;78.70;;;;;;5138079;27;20042;-70
2022/08/23 11:21:10;;;;;;;5.88;4.65;;;35.40;79.10;;;;;;5125960;27;20529;-70
2022/08/23 11:23:44;;;;;;;7.05;4.70;;;35.20;80.30;;;;;;5124974;27;20058;-69
2022/08/23 11:26:36;;;;;;;6.85;4.82;;;35.00;80.60;;;;;;5122384;28;20483;-70
2022/08/23 11:29:05;;;;;;;6.05;4.10;;;35.40;75.70;;;;;;5123496;27;20052;-69
2022/08/23 11:31:36;;;;;;;6.53;4.53;;;35.20;78.30;;;;;;5123336;27;20091;-70
2022/08/23 11:34:05;;;;;;;6.63;4.90;;;35.60;79.20;;;;;;5125934;27;20039;-70
2022/08/23 11:36:33;;;;;;;7.20;4.78;;;36.00;78.40;;;;;;5143773;27;20039;-69
2022/08/23 11:39:04;;;;;;;8.18;4.97;;;36.10;77.70;;;;;;5123292;27;20045;-69
2022/08/23 11:41:35;;;;;;;8.48;5.32;;;36.20;77.30;;;;;;5125461;27;20146;-69
2022/08/23 11:44:06;;;;;;;9.50;4.40;;;35.80;78.90;;;;;;5123122;27;20121;-72
2022/08/23 11:46:58;;;;;;;6.65;4.43;;;35.80;76.70;;;;;;5124758;27;20051;-69
2022/08/23 11:49:48;;;;;;;7.72;3.83;;;35.90;74.00;;;;;;5110148;27;20074;-70
2022/08/23 11:52:51;;;;;;;8.25;4.55;;;34.90;74.10;;;;;;5136732;27;20522;-68
2022/08/23 11:55:35;;;;;;;8.25;3.88;;;35.10;75.80;;;;;;5138803;27;20058;-70
2022/08/23 11:58:29;;;;;;;7.15;4.45;;;35.20;79.90;;;;;;5140481;27;20067;-70
2022/08/23 12:01:10;;;;;;;6.18;4.13;;;35.40;76.40;;;;;;5123696;27;20445;-70
2022/08/23 12:03:51;;;;;;;7.80;3.95;;;36.00;79.70;;;;;;5142251;27;20049;-70
2022/08/23 12:06:23;;;;;;;7.05;4.00;;;35.90;78.30;;;;;;5124101;27;20058;-70
2022/08/23 12:09:00;;;;;;;5.85;3.72;;;35.80;76.70;;;;;;5128442;27;20035;-69
2022/08/23 12:11:55;;;;;;;5.90;3.40;;;35.90;74.70;;;;;;5129186;27;20075;-70
2022/08/23 12:14:40;;;;;;;7.38;4.97;;;35.90;76.10;;;;;;5143656;27;20099;-70
2022/08/23 12:17:12;;;;;;;;;;;36.30;75.00;;;;;;5140685;27;20054;-70
2022/08/23 12:19:45;;;;;;;9.02;3.97;;;36.00;75.00;;;;;;5126398;27;19919;-70
2022/08/23 12:22:17;;;;;;;9.00;4.18;;;36.20;72.60;;;;;;5144717;27;20058;-70
2022/08/23 12:25:04;;;;;;;7.47;5.45;;;35.80;72.30;;;;;;5143100;27;20058;-70
2022/08/23 12:27:41;;;;;;;7.72;5.70;;;34.90;80.90;;;;;;5146743;27;20038;-70
2022/08/23 12:30:21;;;;;;;9.50;7.20;;;34.70;82.10;;;;;;5140766;27;20039;-70
2022/08/23 12:33:33;;;;;;;9.55;6.13;;;34.40;81.90;;;;;;5143317;27;20038;-70
2022/08/23 12:36:08;;;;;;;8.20;5.65;;;34.40;82.90;;;;;;5142046;27;20046;-70
2022/08/23 12:39:07;;;;;;;6.68;5.15;;;34.60;81.50;;;;;;5123239;27;20039;-70
2022/08/23 12:41:58;;;;;;;8.38;6.10;;;34.80;81.90;;;;;;5119971;27;20043;-70
2022/08/23 12:44:28;;;;;;;7.22;5.65;;;34.10;82.70;;;;;;5126355;27;20042;-69
2022/08/23 12:46:54;;;;;;;9.82;6.40;;;33.60;81.30;;;;;;5143890;27;20090;-69
2022/08/23 12:49:32;;;;;;;8.30;5.72;;;33.30;82.80;;;;;;5143197;27;20038;-70
2022/08/23 12:52:00;;;;;;;;;;;33.10;82.80;;;;;;5131306;27;20078;-70
2022/08/23 12:54:43;;;;;;;7.93;4.50;;;33.30;82.40;;;;;;5121386;27;20355;-70
2022/08/23 12:57:37;;;;;;;8.75;4.88;;;33.90;81.00;;;;;;5142095;27;20051;-70
2022/08/23 13:00:19;;;;;;;10.07;5.07;;;34.10;80.30;;;;;;5122510;27;20460;-70
2022/08/23 13:02:58;;;;;;;7.75;4.80;;;33.60;80.00;;;;;;5126659;27;20354;-70
2022/08/23 13:05:47;;;;;;;9.73;5.70;;;33.50;78.20;;;;;;5125093;27;20047;-69
2022/08/23 13:08:23;;;;;;;8.55;4.90;;;33.30;78.90;;;;;;5143314;27;20386;-69
2022/08/23 13:10:50;;;;;;;8.70;5.40;;;33.30;80.80;;;;;;5124695;27;20039;-70
2022/08/23 13:13:21;;;;;;;9.55;5.55;;;33.20;83.20;;;;;;5126576;27;20057;-70
2022/08/23 13:16:31;;;;;;;9.10;6.18;;;33.20;83.60;;;;;;5144391;27;20041;-70
2022/08/23 13:19:17;;;;;;;9.20;6.18;;;33.30;85.70;;;;;;5124584;27;20103;-69